Wyocena, Wisconsin
Current Conditions -  °F | °C
As of 2:15 AM on Saturday 25 Oct 2014 (Local Time) from KDLL Reporting Station
Haze Haze  
Wind Chill: 57°   Ceiling: 900
Heat Index: 57°   Visibility: 4mi
Dew Point: 54°   Wind: 9mph
Humidity: 89%   Direction: 250°WSW
Pressure: 29.88"   Gusts: NA
Location:  43.5°N, 89.31°W
Report Text: KDLL 250715Z AUTO 25008KT 4SM BR OVC009 14/12 A2988 RMK AO2 T01380120
Loading
Personal Weather Stations






























Interactive Weather Map
Tropical Storm Tracking
New forecast layout! Learn more

10-Day Weather Forecast

Advertisements
Track Severe Weather on mobile